KBOK/BOK METAR and TAF weather

Enter ICAO airport designator
Station Type Date Time Source
KBOK METAR 2020/07/06 18:56 UTC NOAA

KBOK 061856Z AUTO 17004KT 10SM SCT012 OVC018 14/11 A3012 RMK AO2 SLP198 T01390111


Station Type Date Time Source
KBOK Decoded METAR 2020/07/06 18:56 UTC NOAA

Brookings, Brookings Airport, OR, United States (KBOK) 42-04-28N 124-17-24W
Jul 06, 2020 - 02:56 PM EDT / 2020.07.06 1856 UTC
Wind: from the S (170 degrees) at 5 MPH (4 KT):0
Visibility: 10 mile(s):0
Sky conditions: overcast
Temperature: 57.0 F (13.9 C)
Dew Point: 52.0 F (11.1 C)
Relative Humidity: 83%
Pressure (altimeter): 30.12 in. Hg (1019 hPa)
ob: KBOK 061856Z AUTO 17004KT 10SM SCT012 OVC018 14/11 A3012 RMK AO2 SLP198 T01390111
cycle: 19

Station Type Date Time Source
KBOK TAF UTC NOAA

Error!

Example: see airport list